createdAt,value
2023-04-24T00:01:24.782Z,6.82
2023-04-24T00:03:51.710Z,6.30
2023-04-24T00:06:18.870Z,8.00
2023-04-24T00:08:45.657Z,6.38
2023-04-24T00:11:12.518Z,10.23
2023-04-24T00:13:39.619Z,6.80
2023-04-24T00:16:06.824Z,9.63
2023-04-24T00:18:33.809Z,10.57
2023-04-24T00:21:01.029Z,7.43
2023-04-24T00:23:28.108Z,9.25
2023-04-24T00:25:54.871Z,7.60
2023-04-24T00:28:21.611Z,8.65
2023-04-24T00:30:48.388Z,6.28
2023-04-24T00:33:15.847Z,6.28
2023-04-24T00:35:42.627Z,5.63
2023-04-24T00:38:09.388Z,6.20
2023-04-24T00:40:36.262Z,5.75
2023-04-24T00:43:03.131Z,7.05
2023-04-24T00:45:32.232Z,6.72
2023-04-24T00:47:59.405Z,6.50
2023-04-24T00:50:27.485Z,6.28
2023-04-24T00:52:54.371Z,6.13
2023-04-24T00:55:21.453Z,5.85
2023-04-24T00:57:49.548Z,6.53
2023-04-24T01:00:17.476Z,6.38
2023-04-24T01:02:48.035Z,6.45
2023-04-24T01:05:16.149Z,6.82
2023-04-24T01:07:46.554Z,6.25
2023-04-24T01:10:14.823Z,6.05
2023-04-24T01:12:42.137Z,6.30
2023-04-24T01:15:09.884Z,6.50
2023-04-24T01:17:37.036Z,6.90
2023-04-24T01:20:06.641Z,6.22
2023-04-24T01:22:36.469Z,7.47
2023-04-24T01:25:04.436Z,5.97
2023-04-24T01:27:31.285Z,5.95
2023-04-24T01:29:58.224Z,5.85
2023-04-24T01:32:26.026Z,4.97
2023-04-24T01:34:53.344Z,5.65
2023-04-24T01:37:20.158Z,5.90
2023-04-24T01:39:47.061Z,4.82
2023-04-24T01:42:14.454Z,5.00
2023-04-24T01:44:42.302Z,5.72
2023-04-24T01:47:09.211Z,6.03
2023-04-24T01:49:36.215Z,5.20
2023-04-24T01:52:03.026Z,5.95
2023-04-24T01:54:29.856Z,6.68
2023-04-24T01:56:56.826Z,6.13
2023-04-24T01:59:26.113Z,6.18
2023-04-24T02:01:52.923Z,7.20
2023-04-24T02:04:19.935Z,5.95
2023-04-24T02:06:46.977Z,6.05
2023-04-24T02:09:13.736Z,6.10
2023-04-24T02:11:40.664Z,5.60
2023-04-24T02:14:07.419Z,6.18
2023-04-24T02:16:34.900Z,6.63
2023-04-24T02:19:01.740Z,5.53
2023-04-24T02:21:28.990Z,7.72
2023-04-24T02:23:55.954Z,8.50
2023-04-24T02:26:22.928Z,7.75
2023-04-24T02:28:49.827Z,7.00
2023-04-24T02:31:16.604Z,7.32
2023-04-24T02:33:43.358Z,8.15
2023-04-24T02:36:10.314Z,7.93
2023-04-24T02:38:37.108Z,7.30
2023-04-24T02:41:07.181Z,7.05
2023-04-24T02:43:34.620Z,6.75
2023-04-24T02:46:01.620Z,7.63
2023-04-24T02:48:28.747Z,7.25
2023-04-24T02:50:55.639Z,6.97
2023-04-24T02:53:22.487Z,7.07
2023-04-24T02:55:49.268Z,21.00
2023-04-24T02:58:16.754Z,11.82
2023-04-24T03:00:44.486Z,8.88
2023-04-24T03:03:11.405Z,7.13
2023-04-24T03:05:38.303Z,8.27
2023-04-24T03:08:05.148Z,13.38
2023-04-24T03:10:33.196Z,13.00
2023-04-24T03:12:59.990Z,8.00
2023-04-24T03:15:27.445Z,7.40
2023-04-24T03:17:56.519Z,7.63
2023-04-24T03:20:23.762Z,7.45
2023-04-24T03:22:50.538Z,7.65
2023-04-24T03:25:17.293Z,7.45
2023-04-24T03:27:44.073Z,7.90
2023-04-24T03:30:11.404Z,7.85
2023-04-24T03:32:40.285Z,7.55
2023-04-24T03:35:10.306Z,8.15
2023-04-24T03:37:37.066Z,7.00
2023-04-24T03:40:04.410Z,7.05
2023-04-24T03:42:31.138Z,6.90
2023-04-24T03:44:57.925Z,7.63
2023-04-24T03:47:24.825Z,7.35
2023-04-24T03:49:52.108Z,7.63
2023-04-24T03:52:18.949Z,7.65
2023-04-24T03:54:45.731Z,7.70
2023-04-24T03:57:12.504Z,7.82
2023-04-24T03:59:39.255Z,7.05
2023-04-24T04:02:06.329Z,7.50
2023-04-24T04:04:33.241Z,7.45
2023-04-24T04:07:02.303Z,7.25
2023-04-24T04:09:29.098Z,6.80
2023-04-24T04:11:56.174Z,6.97
2023-04-24T04:14:24.507Z,8.55
2023-04-24T04:16:53.909Z,7.80
2023-04-24T04:19:21.721Z,8.05
2023-04-24T04:21:53.154Z,6.90
2023-04-24T04:24:21.766Z,7.22
2023-04-24T04:26:48.566Z,6.40
2023-04-24T04:29:18.458Z,7.95
2023-04-24T04:31:46.141Z,8.13
2023-04-24T04:34:13.716Z,9.10
2023-04-24T04:36:41.749Z,9.30
2023-04-24T04:39:08.564Z,9.30
2023-04-24T04:41:38.810Z,7.75
2023-04-24T04:44:05.647Z,7.85
2023-04-24T04:46:34.216Z,7.78
2023-04-24T04:49:02.398Z,8.02
2023-04-24T04:51:29.532Z,7.55
2023-04-24T04:53:56.268Z,8.43
2023-04-24T04:56:23.355Z,11.45
2023-04-24T04:58:50.261Z,11.35
2023-04-24T05:01:17.083Z,11.02
2023-04-24T05:03:44.125Z,15.20
2023-04-24T05:06:11.104Z,10.68
2023-04-24T05:08:37.906Z,11.40
2023-04-24T05:11:04.712Z,10.82
2023-04-24T05:13:39.417Z,12.68
2023-04-24T05:16:07.998Z,11.43
2023-04-24T05:18:35.075Z,11.10
2023-04-24T05:21:02.400Z,12.73
2023-04-24T05:23:29.257Z,10.38
2023-04-24T05:25:56.204Z,11.00
2023-04-24T05:28:23.025Z,10.73
2023-04-24T05:30:49.887Z,11.48
2023-04-24T05:33:16.682Z,11.50
2023-04-24T05:35:47.909Z,10.80
2023-04-24T05:38:15.365Z,10.88
2023-04-24T05:40:42.181Z,10.48
2023-04-24T05:43:09.245Z,11.85
2023-04-24T05:45:37.036Z,11.48
2023-04-24T05:48:04.526Z,10.25
2023-04-24T05:50:31.396Z,11.18
2023-04-24T05:53:02.909Z,11.77
2023-04-24T05:55:29.832Z,12.13
2023-04-24T05:57:56.600Z,10.68
2023-04-24T06:00:23.460Z,11.32
2023-04-24T06:02:50.712Z,12.00
2023-04-24T06:05:18.683Z,11.32
2023-04-24T06:07:45.919Z,11.98
2023-04-24T06:10:12.788Z,11.88
2023-04-24T06:12:39.587Z,11.27
2023-04-24T06:15:07.038Z,12.30
2023-04-24T06:17:33.892Z,13.93
2023-04-24T06:20:00.820Z,12.13
2023-04-24T06:22:27.614Z,13.07
2023-04-24T06:24:54.389Z,12.55
2023-04-24T06:27:21.139Z,13.13
2023-04-24T06:29:55.205Z,12.52
2023-04-24T06:32:25.782Z,13.88
2023-04-24T06:34:53.939Z,14.32
2023-04-24T06:37:21.784Z,14.40
2023-04-24T06:39:48.676Z,13.95
2023-04-24T06:42:15.426Z,15.40
2023-04-24T06:44:42.312Z,16.63
2023-04-24T06:47:09.959Z,15.73
2023-04-24T06:49:40.245Z,14.65
2023-04-24T06:52:07.514Z,15.40
2023-04-24T06:54:34.696Z,14.35
2023-04-24T06:57:01.913Z,14.25
2023-04-24T06:59:29.170Z,13.85
2023-04-24T07:01:56.614Z,12.50
2023-04-24T07:04:23.641Z,12.75
2023-04-24T07:06:50.704Z,11.40
2023-04-24T07:09:19.404Z,11.77
2023-04-24T07:11:46.861Z,12.02
2023-04-24T07:14:13.765Z,11.73
2023-04-24T07:16:40.891Z,11.60
2023-04-24T07:19:08.009Z,12.23
2023-04-24T07:21:34.805Z,13.15
2023-04-24T07:24:02.041Z,12.27
2023-04-24T07:26:30.914Z,12.55
2023-04-24T07:28:57.791Z,13.23
2023-04-24T07:31:24.680Z,13.57
2023-04-24T07:33:51.551Z,12.73
2023-04-24T07:36:19.972Z,11.80
2023-04-24T07:38:47.143Z,11.60
2023-04-24T07:41:14.863Z,12.18
2023-04-24T07:43:42.162Z,12.25
2023-04-24T07:46:10.006Z,12.80
2023-04-24T07:48:37.367Z,17.38
2023-04-24T07:51:04.379Z,14.38
2023-04-24T07:53:31.265Z,16.63
2023-04-24T07:55:58.016Z,16.08
2023-04-24T07:58:25.013Z,16.45
2023-04-24T08:00:51.949Z,15.88
2023-04-24T08:03:21.034Z,15.80
2023-04-24T08:05:48.315Z,17.50
2023-04-24T08:08:15.610Z,17.20
2023-04-24T08:10:42.379Z,15.82
2023-04-24T08:13:09.333Z,16.17
2023-04-24T08:15:36.271Z,16.52
2023-04-24T08:18:03.084Z,17.50
2023-04-24T08:20:30.486Z,17.90
2023-04-24T08:22:57.613Z,17.05
2023-04-24T08:25:25.652Z,17.75
2023-04-24T08:27:52.914Z,17.85
2023-04-24T08:30:19.873Z,18.42
2023-04-24T08:36:53.863Z,18.02
2023-04-24T08:39:21.267Z,19.75
2023-04-24T08:41:50.031Z,19.35
2023-04-24T08:44:17.514Z,20.20
2023-04-24T08:46:48.695Z,19.80
2023-04-24T08:49:17.762Z,21.13
2023-04-24T08:51:45.569Z,19.05
2023-04-24T08:54:14.314Z,20.05
2023-04-24T08:56:44.614Z,19.83
2023-04-24T08:59:12.202Z,19.70
2023-04-24T09:01:41.189Z,19.10
2023-04-24T09:04:15.628Z,18.45
2023-04-24T09:06:43.830Z,19.17
2023-04-24T09:09:12.735Z,18.10
2023-04-24T09:11:40.040Z,18.25
2023-04-24T09:14:10.349Z,17.77
2023-04-24T09:16:37.276Z,17.60
2023-04-24T09:19:04.418Z,18.23
2023-04-24T09:21:35.863Z,17.63
2023-04-24T09:24:05.612Z,18.13
2023-04-24T09:26:36.352Z,16.88
2023-04-24T09:29:04.796Z,21.30
2023-04-24T09:31:31.858Z,18.00
2023-04-24T09:34:02.297Z,15.25
2023-04-24T09:36:39.955Z,16.73
2023-04-24T09:39:17.560Z,15.57
2023-04-24T09:41:57.733Z,15.35
2023-04-24T09:44:26.045Z,15.40
2023-04-24T09:46:55.723Z,14.63
2023-04-24T09:49:27.593Z,15.98
2023-04-24T09:54:41.475Z,14.13
2023-04-24T09:57:11.196Z,7.55
2023-04-24T09:59:45.428Z,8.88
2023-04-24T10:02:20.676Z,5.78
2023-04-24T10:04:58.184Z,4.25
2023-04-24T10:07:27.762Z,3.10
2023-04-24T10:09:55.669Z,3.28
2023-04-24T10:12:23.013Z,2.67
2023-04-24T10:14:51.479Z,2.78
2023-04-24T10:17:21.021Z,2.92
2023-04-24T10:19:48.918Z,2.25
2023-04-24T10:22:18.628Z,2.33
2023-04-24T10:24:48.358Z,2.55
2023-04-24T10:27:16.575Z,2.72
2023-04-24T10:29:45.690Z,1.80
2023-04-24T10:32:12.535Z,2.45
2023-04-24T10:34:39.365Z,2.20
2023-04-24T10:37:06.316Z,2.10
2023-04-24T10:39:34.534Z,2.22
2023-04-24T10:42:01.825Z,1.95
2023-04-24T10:44:37.678Z,1.75
2023-04-24T10:47:04.615Z,1.70
2023-04-24T10:49:33.112Z,1.67
2023-04-24T10:52:08.842Z,1.83
2023-04-24T10:54:36.613Z,1.10
2023-04-24T10:57:22.704Z,1.17
2023-04-24T11:00:20.006Z,1.20
2023-04-24T11:02:53.564Z,1.00
2023-04-24T11:05:21.750Z,0.82
2023-04-24T11:08:14.733Z,0.88
2023-04-24T11:10:55.633Z,1.52
2023-04-24T11:13:23.811Z,0.80
2023-04-24T11:16:27.540Z,1.00
2023-04-24T11:19:19.715Z,0.88
2023-04-24T11:24:33.995Z,0.60
2023-04-24T11:27:09.140Z,0.60
2023-04-24T11:29:46.491Z,0.75
2023-04-24T11:32:43.131Z,0.60
2023-04-24T11:35:25.907Z,0.55
2023-04-24T11:38:18.810Z,0.80
2023-04-24T11:40:41.233Z,0.68
2023-04-24T11:43:09.647Z,0.40
2023-04-24T11:45:36.405Z,0.43
2023-04-24T11:48:04.732Z,0.60
2023-04-24T11:50:31.871Z,0.65
2023-04-24T11:52:58.968Z,0.70
2023-04-24T11:55:28.748Z,0.70
2023-04-24T11:57:58.452Z,0.60
2023-04-24T12:00:31.106Z,0.50
2023-04-24T12:03:12.616Z,0.60
2023-04-24T12:06:10.735Z,0.63
2023-04-24T12:08:38.559Z,0.70
2023-04-24T12:11:10.814Z,0.88
2023-04-24T12:13:37.643Z,0.73
2023-04-24T12:16:06.013Z,1.00
2023-04-24T12:18:33.050Z,0.63
2023-04-24T12:21:22.094Z,2.08
2023-04-24T12:23:50.154Z,0.90
2023-04-24T12:26:22.139Z,0.60
2023-04-24T12:28:50.287Z,0.80
2023-04-24T12:31:17.925Z,0.70
2023-04-24T12:33:44.819Z,0.70
2023-04-24T12:36:13.312Z,0.60
2023-04-24T12:38:45.379Z,0.77
2023-04-24T12:41:15.009Z,1.08
2023-04-24T12:43:52.743Z,0.90
2023-04-24T12:46:21.867Z,0.98
2023-04-24T12:48:49.363Z,0.80
2023-04-24T12:51:16.162Z,0.75
2023-04-24T12:53:43.440Z,0.50
2023-04-24T12:56:10.583Z,0.50
2023-04-24T12:58:37.378Z,0.90
2023-04-24T13:01:04.394Z,0.65
2023-04-24T13:03:31.234Z,0.60
2023-04-24T13:05:58.036Z,0.68
2023-04-24T13:08:24.898Z,0.55
2023-04-24T13:10:52.999Z,0.60
2023-04-24T13:13:19.862Z,0.70
2023-04-24T13:15:46.620Z,1.00
2023-04-24T13:18:13.427Z,0.70
2023-04-24T13:20:41.660Z,1.00
2023-04-24T13:23:08.508Z,0.80
2023-04-24T13:25:38.336Z,0.93
2023-04-24T13:28:05.764Z,0.80
2023-04-24T13:30:33.083Z,0.80
2023-04-24T13:32:59.968Z,0.82
2023-04-24T13:35:26.974Z,0.90
2023-04-24T13:37:53.718Z,0.82
2023-04-24T13:40:20.782Z,0.90
2023-04-24T13:42:47.576Z,0.90
2023-04-24T13:45:24.860Z,1.00
2023-04-24T13:47:53.471Z,1.15
2023-04-24T13:50:21.247Z,0.80
2023-04-24T13:52:47.998Z,1.33
2023-04-24T13:55:14.825Z,0.90
2023-04-24T13:57:41.799Z,0.70
2023-04-24T14:00:11.384Z,1.00
2023-04-24T14:02:38.511Z,0.93
2023-04-24T14:05:07.026Z,1.00
2023-04-24T14:07:33.918Z,1.13
2023-04-24T14:10:01.034Z,1.40
2023-04-24T14:12:28.170Z,1.00
2023-04-24T14:14:55.033Z,1.38
2023-04-24T14:17:21.773Z,1.35
2023-04-24T14:19:48.557Z,1.38
2023-04-24T14:22:15.472Z,1.45
2023-04-24T14:24:42.219Z,1.20
2023-04-24T14:27:09.008Z,1.50
2023-04-24T14:29:36.188Z,1.02
2023-04-24T14:32:02.945Z,1.25
2023-04-24T14:34:29.685Z,3.85
2023-04-24T14:36:56.659Z,14.57
2023-04-24T14:39:23.464Z,22.15
2023-04-24T14:41:50.211Z,2.22
2023-04-24T14:44:16.987Z,1.05
2023-04-24T14:46:43.914Z,1.20
2023-04-24T14:49:10.905Z,1.52
2023-04-24T14:51:37.932Z,2.00
2023-04-24T14:54:04.860Z,1.08
2023-04-24T14:56:31.611Z,0.77
2023-04-24T14:58:58.500Z,1.40
2023-04-24T15:01:25.490Z,1.13
2023-04-24T15:03:53.082Z,0.88
2023-04-24T15:06:21.259Z,2.83
2023-04-24T15:08:50.204Z,1.40
2023-04-24T15:11:17.677Z,1.13
2023-04-24T15:13:46.589Z,0.85
2023-04-24T15:16:14.083Z,0.80
2023-04-24T15:18:41.129Z,0.90
2023-04-24T15:21:08.027Z,1.10
2023-04-24T15:23:34.974Z,0.70
2023-04-24T15:26:03.009Z,1.00
2023-04-24T15:28:29.843Z,1.00
2023-04-24T15:30:56.655Z,1.00
2023-04-24T15:33:24.078Z,0.88
2023-04-24T15:35:51.902Z,1.10
2023-04-24T15:38:18.770Z,0.90
2023-04-24T15:40:45.744Z,1.05
2023-04-24T15:43:12.484Z,0.80
2023-04-24T15:45:39.308Z,0.80
2023-04-24T15:48:06.288Z,1.00
2023-04-24T15:50:33.147Z,0.90
2023-04-24T15:52:59.934Z,1.48
2023-04-24T15:55:27.888Z,0.85
2023-04-24T15:57:54.924Z,1.20
2023-04-24T16:00:21.922Z,1.30
2023-04-24T16:02:50.521Z,1.40
2023-04-24T16:05:19.875Z,1.40
2023-04-24T16:07:46.692Z,1.50
2023-04-24T16:10:13.535Z,1.02
2023-04-24T16:12:40.863Z,1.20
2023-04-24T16:15:08.136Z,1.20
2023-04-24T16:17:34.956Z,1.30
2023-04-24T16:20:01.762Z,1.23
2023-04-24T16:22:28.558Z,0.95
2023-04-24T16:24:55.420Z,1.35
2023-04-24T16:27:22.259Z,1.73
2023-04-24T16:29:49.054Z,1.20
2023-04-24T16:32:15.833Z,1.15
2023-04-24T16:34:42.684Z,1.30
2023-04-24T16:37:09.453Z,1.60
2023-04-24T16:39:36.271Z,2.10
2023-04-24T16:42:03.113Z,2.10
2023-04-24T16:44:30.667Z,2.30
2023-04-24T16:46:57.743Z,2.00
2023-04-24T16:49:24.627Z,1.70
2023-04-24T16:51:51.402Z,1.10
2023-04-24T16:54:18.254Z,1.05
2023-04-24T16:56:45.064Z,0.85
2023-04-24T16:59:11.991Z,0.70
2023-04-24T17:01:38.771Z,1.17
2023-04-24T17:04:05.648Z,0.93
2023-04-24T17:06:32.840Z,1.00
2023-04-24T17:09:00.534Z,1.05
2023-04-24T17:11:29.916Z,1.70
2023-04-24T17:13:59.726Z,1.95
2023-04-24T17:16:27.019Z,3.78
2023-04-24T17:18:54.118Z,2.13
2023-04-24T17:21:20.896Z,2.05
2023-04-24T17:23:49.428Z,2.00
2023-04-24T17:26:16.646Z,14.52
2023-04-24T17:28:43.515Z,2.38
2023-04-24T17:31:10.408Z,1.98
2023-04-24T17:33:37.236Z,2.45
2023-04-24T17:36:04.372Z,2.50
2023-04-24T17:38:31.279Z,2.00
2023-04-24T17:40:58.654Z,1.80
2023-04-24T17:43:25.923Z,1.60
2023-04-24T17:45:56.468Z,1.60
2023-04-24T17:48:23.629Z,1.98
2023-04-24T17:50:50.562Z,1.90
2023-04-24T17:53:18.927Z,1.63
2023-04-24T17:55:49.406Z,1.90
2023-04-24T17:58:16.897Z,2.60
2023-04-24T18:00:43.700Z,2.50
2023-04-24T18:03:10.764Z,7.63
2023-04-24T18:05:39.035Z,3.08
2023-04-24T18:08:06.785Z,3.40
2023-04-24T18:10:37.472Z,2.42
2023-04-24T18:13:07.319Z,4.32
2023-04-24T18:15:35.573Z,4.32
2023-04-24T18:18:02.637Z,3.15
2023-04-24T18:20:29.464Z,3.20
2023-04-24T18:22:56.347Z,3.40
2023-04-24T18:25:26.972Z,3.47
2023-04-24T18:27:54.902Z,2.63
2023-04-24T18:30:22.484Z,3.15
2023-04-24T18:32:50.534Z,2.72
2023-04-24T18:35:19.185Z,2.80
2023-04-24T18:37:46.421Z,2.42
2023-04-24T18:40:16.832Z,2.70
2023-04-24T18:42:44.200Z,2.70
2023-04-24T18:45:14.618Z,3.33
2023-04-24T18:47:42.063Z,2.70
2023-04-24T18:50:09.431Z,2.53
2023-04-24T18:52:36.383Z,2.88
2023-04-24T18:55:04.436Z,2.42
2023-04-24T18:57:31.238Z,2.33
2023-04-24T18:59:58.137Z,2.90
2023-04-24T19:02:25.391Z,3.20
2023-04-24T19:04:52.385Z,2.67
2023-04-24T19:07:19.854Z,2.40
2023-04-24T19:09:46.757Z,2.35
2023-04-24T19:12:13.644Z,2.63
2023-04-24T19:14:40.560Z,2.60
2023-04-24T19:17:09.984Z,2.90
2023-04-24T19:19:36.880Z,3.55
2023-04-24T19:22:03.864Z,3.30
2023-04-24T19:24:33.354Z,2.67
2023-04-24T19:27:00.523Z,2.65
2023-04-24T19:29:27.448Z,2.47
2023-04-24T19:31:54.677Z,2.00
2023-04-24T19:34:21.513Z,2.47
2023-04-24T19:36:48.638Z,2.53
2023-04-24T19:39:16.160Z,2.33
2023-04-24T19:41:42.945Z,5.35
2023-04-24T19:44:10.277Z,5.88
2023-04-24T19:46:37.203Z,5.43
2023-04-24T19:49:04.122Z,4.53
2023-04-24T19:51:33.258Z,3.17
2023-04-24T19:54:00.685Z,2.80
2023-04-24T19:56:27.574Z,2.72
2023-04-24T19:58:54.473Z,2.30
2023-04-24T20:01:21.495Z,2.97
2023-04-24T20:03:48.377Z,2.92
2023-04-24T20:06:15.313Z,2.90
2023-04-24T20:08:42.778Z,3.53
2023-04-24T20:11:09.735Z,3.88
2023-04-24T20:13:36.562Z,3.78
2023-04-24T20:16:04.467Z,18.40
2023-04-24T20:18:31.354Z,9.30
2023-04-24T20:20:59.737Z,6.07
2023-04-24T20:23:26.948Z,5.72
2023-04-24T20:25:59.589Z,5.32
2023-04-24T20:28:27.275Z,4.28
2023-04-24T20:30:54.172Z,4.50
2023-04-24T20:33:21.801Z,4.30
2023-04-24T20:35:49.700Z,4.25
2023-04-24T20:38:18.519Z,4.22
2023-04-24T20:43:19.944Z,4.43
2023-04-24T20:45:47.492Z,4.28
2023-04-24T20:48:14.292Z,4.60
2023-04-24T20:50:42.089Z,5.00
2023-04-24T20:53:09.420Z,4.65
2023-04-24T20:55:36.650Z,4.22
2023-04-24T20:58:03.702Z,4.10
2023-04-24T21:00:31.004Z,3.75
2023-04-24T21:02:57.889Z,4.40
2023-04-24T21:05:24.762Z,4.50
2023-04-24T21:07:55.828Z,4.85
2023-04-24T21:10:23.889Z,4.15
2023-04-24T21:12:51.130Z,4.47
2023-04-24T21:15:18.168Z,4.25
2023-04-24T21:17:45.282Z,4.43
2023-04-24T21:20:12.453Z,4.10
2023-04-24T21:22:39.309Z,4.95
2023-04-24T21:25:06.654Z,4.15
2023-04-24T21:27:33.461Z,4.18
2023-04-24T21:30:00.336Z,4.25
2023-04-24T21:32:27.186Z,4.53
2023-04-24T21:34:53.985Z,4.10
2023-04-24T21:37:20.744Z,4.13
2023-04-24T21:39:47.546Z,3.80
2023-04-24T21:42:14.310Z,4.20
2023-04-24T21:44:41.100Z,4.28
2023-04-24T21:47:08.191Z,3.65
2023-04-24T21:49:34.928Z,4.40
2023-04-24T21:52:01.749Z,3.72
2023-04-24T21:54:28.524Z,4.65
2023-04-24T21:56:55.556Z,3.88
2023-04-24T21:59:22.327Z,4.18
2023-04-24T22:01:49.189Z,3.88
2023-04-24T22:04:16.236Z,4.10
2023-04-24T22:06:43.188Z,4.10
2023-04-24T22:09:10.884Z,3.92
2023-04-24T22:11:37.931Z,3.47
2023-04-24T22:14:07.082Z,3.53
2023-04-24T22:16:34.575Z,3.55
2023-04-24T22:19:01.507Z,3.58
2023-04-24T22:21:28.481Z,3.10
2023-04-24T22:23:55.307Z,3.13
2023-04-24T22:26:22.088Z,3.60
2023-04-24T22:28:48.886Z,3.35
2023-04-24T22:31:15.998Z,3.20
2023-04-24T22:33:44.300Z,3.85
2023-04-24T22:36:11.077Z,3.30
2023-04-24T22:38:37.849Z,3.10
2023-04-24T22:41:04.640Z,3.38
2023-04-24T22:43:32.110Z,2.63
2023-04-24T22:45:58.875Z,3.30
2023-04-24T22:48:26.012Z,3.38
2023-04-24T22:50:52.973Z,2.42
2023-04-24T22:53:19.972Z,3.22
2023-04-24T22:55:46.906Z,3.42
2023-04-24T22:58:13.809Z,2.90
2023-04-24T23:00:40.622Z,3.10
2023-04-24T23:03:07.616Z,3.30
2023-04-24T23:05:34.529Z,2.83
2023-04-24T23:08:01.269Z,6.50
2023-04-24T23:10:28.393Z,3.22
2023-04-24T23:12:55.477Z,4.28
2023-04-24T23:15:22.350Z,4.80
2023-04-24T23:17:49.111Z,3.95
2023-04-24T23:20:16.147Z,3.28
2023-04-24T23:22:43.012Z,2.90
2023-04-24T23:25:10.905Z,3.13
2023-04-24T23:27:37.794Z,2.97
2023-04-24T23:30:08.123Z,3.90
2023-04-24T23:32:35.039Z,2.80
2023-04-24T23:35:01.846Z,3.00
2023-04-24T23:37:28.701Z,3.00
2023-04-24T23:39:55.552Z,2.88
2023-04-24T23:42:22.377Z,3.35
2023-04-24T23:44:49.130Z,3.00
2023-04-24T23:47:15.876Z,2.90
2023-04-24T23:49:42.643Z,2.53
2023-04-24T23:52:09.482Z,2.92
2023-04-24T23:54:36.238Z,3.17
2023-04-24T23:57:03.596Z,2.80
2023-04-24T23:59:30.728Z,2.88
